createdAt,value
2023-04-02T00:02:21.945Z,67.16
2023-04-02T00:05:16.698Z,66.66
2023-04-02T00:07:51.628Z,66.94
2023-04-02T00:10:30.062Z,67.09
2023-04-02T00:13:06.856Z,67.30
2023-04-02T00:15:41.622Z,67.75
2023-04-02T00:18:16.588Z,68.32
2023-04-02T00:20:55.208Z,67.89
2023-04-02T00:23:29.967Z,67.27
2023-04-02T00:26:02.913Z,67.77
2023-04-02T00:28:37.233Z,67.61
2023-04-02T00:31:11.744Z,67.69
2023-04-02T00:33:45.077Z,67.97
2023-04-02T00:36:20.599Z,67.02
2023-04-02T00:38:54.491Z,66.82
2023-04-02T00:41:30.729Z,68.44
2023-04-02T00:44:06.547Z,66.77
2023-04-02T00:46:46.990Z,67.53
2023-04-02T00:49:26.197Z,67.14
2023-04-02T00:52:01.609Z,66.90
2023-04-02T00:54:40.225Z,66.66
2023-04-02T00:57:16.518Z,67.74
2023-04-02T00:59:54.556Z,67.63
2023-04-02T01:02:31.633Z,68.32
2023-04-02T01:05:11.357Z,68.14
2023-04-02T01:07:51.926Z,67.47
2023-04-02T01:10:32.698Z,67.22
2023-04-02T01:13:13.570Z,68.05
2023-04-02T01:15:52.691Z,68.12
2023-04-02T01:18:31.749Z,67.95
2023-04-02T01:21:23.096Z,67.85
2023-04-02T01:24:01.312Z,67.33
2023-04-02T01:26:41.884Z,67.47
2023-04-02T01:29:17.805Z,67.12
2023-04-02T01:31:52.042Z,67.54
2023-04-02T01:34:26.749Z,66.58
2023-04-02T01:37:07.684Z,66.20
2023-04-02T01:39:46.921Z,66.05
2023-04-02T01:42:22.096Z,67.56
2023-04-02T01:45:02.463Z,67.21
2023-04-02T01:47:36.135Z,67.32
2023-04-02T01:50:18.517Z,67.57
2023-04-02T01:52:52.587Z,69.13
2023-04-02T01:55:30.466Z,68.25
2023-04-02T01:58:04.784Z,68.32
2023-04-02T02:00:42.695Z,66.96
2023-04-02T02:03:16.755Z,67.62
2023-04-02T02:05:49.845Z,68.11
2023-04-02T02:08:26.332Z,67.02
2023-04-02T02:10:59.705Z,66.52
2023-04-02T02:13:33.630Z,66.80
2023-04-02T02:16:13.595Z,67.71
2023-04-02T02:18:47.605Z,66.70
2023-04-02T02:21:25.274Z,67.69
2023-04-02T02:23:58.412Z,67.10
2023-04-02T02:26:34.100Z,68.99
2023-04-02T02:29:08.627Z,68.39
2023-04-02T02:31:44.794Z,66.90
2023-04-02T02:34:22.415Z,67.39
2023-04-02T02:36:58.081Z,67.91
2023-04-02T02:39:34.695Z,69.25
2023-04-02T02:42:11.652Z,67.61
2023-04-02T02:44:45.875Z,68.11
2023-04-02T02:47:23.798Z,68.58
2023-04-02T02:49:59.132Z,68.93
2023-04-02T02:52:33.356Z,65.87
2023-04-02T02:55:08.203Z,67.01
2023-04-02T02:57:43.694Z,66.56
2023-04-02T03:00:19.568Z,66.75
2023-04-02T03:02:56.361Z,65.53
2023-04-02T03:05:29.687Z,66.81
2023-04-02T03:08:04.588Z,65.09
2023-04-02T03:10:41.682Z,66.17
2023-04-02T03:13:21.961Z,65.62
2023-04-02T03:15:59.486Z,65.92
2023-04-02T03:18:42.684Z,67.00
2023-04-02T03:21:20.025Z,67.17
2023-04-02T03:23:55.806Z,68.56
2023-04-02T03:26:35.353Z,67.15
2023-04-02T03:29:15.269Z,69.00
2023-04-02T03:31:49.690Z,67.06
2023-04-02T03:34:26.453Z,68.17
2023-04-02T03:37:02.323Z,69.89
2023-04-02T03:39:38.531Z,68.38
2023-04-02T03:42:15.617Z,69.97
2023-04-02T03:44:50.911Z,70.12
2023-04-02T03:47:28.975Z,69.46
2023-04-02T03:50:06.312Z,69.80
2023-04-02T03:52:39.919Z,69.49
2023-04-02T03:55:16.025Z,68.04
2023-04-02T03:57:54.985Z,68.38
2023-04-02T04:00:32.546Z,68.71
2023-04-02T04:03:11.586Z,65.92
2023-04-02T04:05:49.779Z,66.65
2023-04-02T04:08:25.237Z,65.73
2023-04-02T04:11:00.430Z,65.87
2023-04-02T04:13:40.333Z,65.95
2023-04-02T04:16:17.427Z,65.35
2023-04-02T04:18:57.212Z,65.87
2023-04-02T04:21:37.457Z,66.62
2023-04-02T04:24:17.448Z,66.92
2023-04-02T04:26:54.225Z,67.60
2023-04-02T04:29:33.495Z,66.87
2023-04-02T04:32:16.728Z,66.60
2023-04-02T04:34:53.355Z,65.58
2023-04-02T04:37:33.581Z,64.00
2023-04-02T04:40:12.504Z,63.66
2023-04-02T04:42:46.919Z,64.12
2023-04-02T04:45:29.897Z,64.20
2023-04-02T04:48:04.243Z,64.20
2023-04-02T04:50:40.020Z,63.31
2023-04-02T04:53:17.664Z,63.60
2023-04-02T04:55:51.591Z,64.64
2023-04-02T04:58:25.964Z,63.43
2023-04-02T05:01:03.210Z,64.08
2023-04-02T05:03:39.084Z,62.24
2023-04-02T05:06:14.793Z,62.21
2023-04-02T05:08:50.621Z,61.66
2023-04-02T05:11:27.586Z,61.44
2023-04-02T05:14:03.139Z,61.03
2023-04-02T05:16:40.807Z,61.26
2023-04-02T05:19:17.986Z,62.27
2023-04-02T05:21:54.819Z,63.09
2023-04-02T05:24:36.677Z,65.74
2023-04-02T05:27:17.221Z,61.50
2023-04-02T05:29:52.123Z,62.29
2023-04-02T05:32:28.352Z,63.62
2023-04-02T05:35:05.323Z,63.94
2023-04-02T05:37:40.715Z,62.36
2023-04-02T05:40:20.375Z,62.32
2023-04-02T05:42:55.738Z,63.73
2023-04-02T05:45:32.501Z,62.83
2023-04-02T05:48:08.565Z,62.25
2023-04-02T05:50:43.319Z,62.68
2023-04-02T05:53:18.925Z,62.67
2023-04-02T05:55:57.791Z,63.52
2023-04-02T05:58:36.846Z,63.88
2023-04-02T06:01:28.247Z,63.18
2023-04-02T06:04:03.853Z,62.73
2023-04-02T06:06:48.921Z,63.17
2023-04-02T06:09:26.418Z,62.24
2023-04-02T06:12:05.580Z,64.40
2023-04-02T06:14:38.722Z,65.46
2023-04-02T06:17:14.262Z,64.69
2023-04-02T06:19:48.001Z,61.56
2023-04-02T06:22:24.253Z,64.07
2023-04-02T06:24:59.880Z,61.67
2023-04-02T06:27:35.410Z,60.42
2023-04-02T06:30:15.527Z,59.85
2023-04-02T06:32:48.533Z,58.25
2023-04-02T06:35:21.573Z,59.64
2023-04-02T06:37:57.491Z,59.54
2023-04-02T06:40:35.155Z,55.98
2023-04-02T06:43:15.073Z,56.54
2023-04-02T06:45:53.094Z,54.88
2023-04-02T06:48:26.926Z,55.39
2023-04-02T06:51:03.063Z,55.26
2023-04-02T06:53:37.966Z,55.23
2023-04-02T06:56:20.283Z,52.95
2023-04-02T06:58:55.033Z,52.54
2023-04-02T07:01:30.291Z,52.11
2023-04-02T07:04:03.803Z,51.07
2023-04-02T07:06:36.821Z,49.66
2023-04-02T07:09:10.129Z,49.35
2023-04-02T07:11:44.599Z,48.15
2023-04-02T07:14:18.911Z,47.77
2023-04-02T07:16:52.246Z,47.14
2023-04-02T07:19:25.453Z,46.50
2023-04-02T07:21:58.512Z,47.11
2023-04-02T07:24:31.411Z,46.97
2023-04-02T07:27:04.469Z,47.71
2023-04-02T07:29:42.697Z,47.20
2023-04-02T07:32:16.064Z,48.39
2023-04-02T07:34:49.155Z,47.35
2023-04-02T07:37:22.306Z,48.20
2023-04-02T07:39:55.278Z,47.89
2023-04-02T07:42:28.167Z,47.54
2023-04-02T07:45:04.631Z,48.63
2023-04-02T07:47:39.142Z,48.93
2023-04-02T07:50:12.533Z,48.67
2023-04-02T07:52:45.694Z,48.46
2023-04-02T07:55:18.583Z,48.53
2023-04-02T07:57:52.411Z,48.14
2023-04-02T08:00:28.380Z,48.96
2023-04-02T08:03:01.692Z,48.49
2023-04-02T08:05:35.692Z,48.53
2023-04-02T08:08:09.250Z,48.07
2023-04-02T08:10:42.319Z,47.79
2023-04-02T08:13:16.185Z,47.87
2023-04-02T08:15:50.561Z,47.83
2023-04-02T08:18:24.511Z,47.58
2023-04-02T08:20:58.022Z,47.71
2023-04-02T08:23:31.420Z,48.10
2023-04-02T08:26:05.049Z,47.18
2023-04-02T08:28:38.071Z,46.99
2023-04-02T08:31:13.533Z,47.20
2023-04-02T08:33:48.176Z,47.88
2023-04-02T08:36:34.254Z,48.14
2023-04-02T08:39:11.039Z,48.19
2023-04-02T08:41:47.216Z,48.00
2023-04-02T08:44:28.010Z,47.57
2023-04-02T08:47:04.903Z,46.25
2023-04-02T08:49:41.200Z,45.99
2023-04-02T08:52:26.681Z,46.03
2023-04-02T08:55:00.543Z,45.91
2023-04-02T08:57:37.229Z,44.64
2023-04-02T09:00:25.739Z,45.79
2023-04-02T09:03:12.195Z,45.51
2023-04-02T09:05:56.198Z,46.29
2023-04-02T09:08:32.171Z,45.47
2023-04-02T09:11:07.978Z,45.15
2023-04-02T09:13:44.483Z,46.11
2023-04-02T09:16:22.440Z,45.61
2023-04-02T09:18:56.948Z,44.96
2023-04-02T09:21:35.310Z,44.71
2023-04-02T09:24:10.566Z,44.11
2023-04-02T09:26:43.734Z,43.83
2023-04-02T09:29:31.506Z,43.89
2023-04-02T09:32:09.294Z,42.33
2023-04-02T09:34:43.682Z,41.63
2023-04-02T09:37:18.260Z,42.66
2023-04-02T09:39:51.680Z,41.34
2023-04-02T09:42:34.076Z,42.55
2023-04-02T09:45:16.716Z,43.60
2023-04-02T09:47:50.138Z,41.92
2023-04-02T09:50:29.308Z,41.72
2023-04-02T09:53:18.179Z,41.16
2023-04-02T09:55:51.291Z,41.58
2023-04-02T09:58:24.581Z,39.88
2023-04-02T10:00:57.567Z,38.38
2023-04-02T10:03:32.907Z,38.66
2023-04-02T10:06:09.397Z,38.08
2023-04-02T10:08:43.019Z,38.93
2023-04-02T10:11:20.110Z,37.83
2023-04-02T10:13:56.550Z,37.79
2023-04-02T10:16:33.562Z,36.67
2023-04-02T10:19:13.355Z,37.35
2023-04-02T10:21:50.254Z,37.34
2023-04-02T10:24:23.401Z,37.99
2023-04-02T10:27:02.036Z,38.36
2023-04-02T10:30:04.039Z,37.94
2023-04-02T10:32:40.833Z,37.11
2023-04-02T10:35:18.812Z,38.70
2023-04-02T10:38:07.836Z,37.65
2023-04-02T10:40:43.886Z,36.53
2023-04-02T10:43:40.799Z,36.76
2023-04-02T10:46:17.622Z,35.94
2023-04-02T10:48:55.352Z,35.36
2023-04-02T10:51:30.995Z,34.54
2023-04-02T10:54:09.038Z,35.40
2023-04-02T10:56:50.559Z,34.33
2023-04-02T10:59:26.226Z,36.48
2023-04-02T11:02:01.768Z,36.00
2023-04-02T11:04:39.713Z,34.98
2023-04-02T11:07:17.271Z,35.12
2023-04-02T11:09:53.196Z,35.14
2023-04-02T11:12:42.230Z,35.14
2023-04-02T11:15:17.568Z,35.56
2023-04-02T11:17:51.638Z,35.31
2023-04-02T11:20:58.414Z,35.78
2023-04-02T11:23:33.168Z,35.24
2023-04-02T11:26:31.523Z,34.83
2023-04-02T11:29:18.134Z,36.68
2023-04-02T11:31:52.441Z,34.99
2023-04-02T11:35:05.765Z,34.78
2023-04-02T11:37:40.332Z,34.84
2023-04-02T11:40:31.818Z,35.04
2023-04-02T11:43:19.589Z,35.27
2023-04-02T11:45:56.707Z,35.10
2023-04-02T11:48:33.934Z,35.14
2023-04-02T11:51:16.469Z,35.71
2023-04-02T11:53:51.117Z,35.24
2023-04-02T11:56:29.147Z,35.40
2023-04-02T11:59:08.062Z,35.22
2023-04-02T12:02:06.213Z,35.51
2023-04-02T12:04:59.314Z,36.79
2023-04-02T12:07:38.426Z,35.93
2023-04-02T12:10:17.826Z,35.10
2023-04-02T12:12:52.073Z,35.35
2023-04-02T12:15:32.355Z,36.23
2023-04-02T12:18:12.607Z,36.10
2023-04-02T12:20:50.911Z,35.24
2023-04-02T12:23:25.562Z,35.16
2023-04-02T12:25:59.701Z,35.58
2023-04-02T12:28:33.962Z,35.72
2023-04-02T12:31:13.383Z,37.47
2023-04-02T12:33:52.640Z,35.81
2023-04-02T12:36:25.694Z,36.04
2023-04-02T12:38:59.375Z,35.94
2023-04-02T12:41:33.461Z,36.30
2023-04-02T12:44:11.618Z,36.79
2023-04-02T12:46:45.526Z,35.99
2023-04-02T12:49:24.895Z,35.76
2023-04-02T12:51:58.577Z,36.45
2023-04-02T12:54:34.276Z,36.10
2023-04-02T12:57:21.991Z,36.41
2023-04-02T12:59:55.590Z,36.09
2023-04-02T13:02:30.130Z,36.03
2023-04-02T13:05:05.011Z,37.24
2023-04-02T13:07:38.444Z,36.48
2023-04-02T13:10:24.655Z,35.93
2023-04-02T13:13:01.992Z,35.86
2023-04-02T13:15:38.525Z,35.72
2023-04-02T13:18:20.053Z,35.71
2023-04-02T13:20:59.021Z,36.70
2023-04-02T13:23:37.447Z,36.27
2023-04-02T13:26:15.748Z,36.86
2023-04-02T13:28:58.993Z,37.22
2023-04-02T13:31:32.949Z,38.18
2023-04-02T13:34:16.914Z,36.28
2023-04-02T13:36:51.793Z,36.30
2023-04-02T13:39:25.238Z,36.88
2023-04-02T13:41:59.094Z,36.15
2023-04-02T13:44:33.290Z,37.04
2023-04-02T13:47:06.483Z,36.64
2023-04-02T13:49:39.495Z,36.25
2023-04-02T13:52:15.866Z,38.45
2023-04-02T13:54:50.881Z,37.41
2023-04-02T13:57:24.480Z,37.46
2023-04-02T13:59:57.505Z,36.85
2023-04-02T14:02:30.777Z,36.98
2023-04-02T14:05:12.214Z,37.33
2023-04-02T14:07:51.922Z,37.55
2023-04-02T14:10:32.414Z,37.12
2023-04-02T14:13:13.476Z,37.28
2023-04-02T14:15:57.359Z,36.91
2023-04-02T14:18:41.244Z,39.07
2023-04-02T14:21:18.307Z,38.64
2023-04-02T14:23:59.454Z,37.42
2023-04-02T14:26:39.806Z,37.10
2023-04-02T14:29:16.818Z,39.89
2023-04-02T14:32:04.280Z,39.53
2023-04-02T14:34:51.630Z,38.52
2023-04-02T14:37:30.647Z,38.19
2023-04-02T14:40:10.527Z,37.99
2023-04-02T14:42:46.255Z,39.41
2023-04-02T14:45:24.963Z,39.74
2023-04-02T14:48:00.370Z,38.76
2023-04-02T14:50:39.300Z,41.39
2023-04-02T14:53:15.671Z,39.71
2023-04-02T14:55:51.018Z,40.63
2023-04-02T14:58:26.188Z,42.35
2023-04-02T15:01:04.240Z,41.03
2023-04-02T15:03:43.399Z,41.98
2023-04-02T15:06:19.802Z,40.44
2023-04-02T15:09:08.477Z,40.78
2023-04-02T15:11:45.789Z,41.54
2023-04-02T15:14:21.640Z,41.11
2023-04-02T15:16:58.318Z,42.77
2023-04-02T15:19:31.427Z,42.93
2023-04-02T15:22:09.679Z,43.40
2023-04-02T15:24:48.222Z,40.23
2023-04-02T15:27:33.155Z,40.64
2023-04-02T15:30:19.340Z,40.23
2023-04-02T15:32:54.374Z,40.09
2023-04-02T15:35:33.819Z,40.67
2023-04-02T15:38:10.708Z,41.66
2023-04-02T15:40:55.964Z,43.61
2023-04-02T15:43:31.609Z,39.87
2023-04-02T15:46:12.583Z,40.18
2023-04-02T15:49:03.815Z,40.13
2023-04-02T15:51:42.308Z,40.73
2023-04-02T15:54:30.310Z,40.65
2023-04-02T15:57:19.579Z,42.55
2023-04-02T16:00:04.782Z,42.27
2023-04-02T16:02:49.057Z,44.40
2023-04-02T16:05:28.803Z,44.85
2023-04-02T16:08:09.323Z,45.81
2023-04-02T16:10:43.344Z,46.19
2023-04-02T16:13:29.749Z,47.50
2023-04-02T16:16:07.229Z,44.84
2023-04-02T16:18:46.083Z,44.17
2023-04-02T16:21:21.560Z,44.18
2023-04-02T16:24:07.304Z,44.92
2023-04-02T16:26:48.656Z,44.75
2023-04-02T16:29:35.577Z,45.04
2023-04-02T16:32:23.264Z,45.32
2023-04-02T16:35:15.019Z,45.77
2023-04-02T16:37:57.581Z,48.56
2023-04-02T16:40:34.867Z,49.41
2023-04-02T16:43:12.671Z,47.76
2023-04-02T16:45:50.923Z,48.57
2023-04-02T16:48:30.986Z,49.89
2023-04-02T16:51:10.989Z,52.04
2023-04-02T16:54:01.136Z,50.22
2023-04-02T16:56:41.670Z,50.78
2023-04-02T16:59:20.118Z,52.37
2023-04-02T17:02:05.463Z,51.25
2023-04-02T17:04:54.737Z,51.64
2023-04-02T17:07:29.965Z,52.52
2023-04-02T17:10:20.308Z,52.56
2023-04-02T17:12:59.747Z,53.30
2023-04-02T17:15:37.117Z,53.85
2023-04-02T17:18:14.816Z,53.34
2023-04-02T17:20:49.533Z,54.27
2023-04-02T17:23:23.044Z,54.68
2023-04-02T17:25:58.336Z,54.32
2023-04-02T17:28:42.503Z,54.68
2023-04-02T17:31:18.837Z,55.60
2023-04-02T17:33:52.367Z,55.37
2023-04-02T17:36:32.849Z,54.93
2023-04-02T17:39:19.459Z,55.59
2023-04-02T17:41:54.975Z,55.95
2023-04-02T17:44:43.151Z,56.45
2023-04-02T17:47:19.955Z,57.11
2023-04-02T17:50:02.582Z,57.10
2023-04-02T17:52:40.529Z,56.90
2023-04-02T17:55:29.294Z,57.56
2023-04-02T17:58:07.861Z,57.57
2023-04-02T18:00:50.835Z,57.91
2023-04-02T18:03:44.094Z,59.43
2023-04-02T18:06:20.053Z,59.04
2023-04-02T18:09:05.421Z,59.26
2023-04-02T18:11:44.576Z,59.53
2023-04-02T18:14:28.432Z,59.40
2023-04-02T18:17:07.360Z,59.75
2023-04-02T18:19:47.320Z,59.45
2023-04-02T18:22:23.995Z,58.68
2023-04-02T18:25:10.657Z,58.04
2023-04-02T18:27:52.082Z,59.16
2023-04-02T18:30:28.031Z,58.37
2023-04-02T18:33:09.316Z,59.88
2023-04-02T18:35:48.981Z,60.75
2023-04-02T18:38:30.560Z,60.42
2023-04-02T18:41:12.554Z,61.34
2023-04-02T18:43:53.179Z,61.74
2023-04-02T18:46:34.037Z,60.18
2023-04-02T18:49:19.445Z,60.01
2023-04-02T18:51:55.758Z,58.74
2023-04-02T18:54:32.097Z,60.22
2023-04-02T18:57:11.871Z,59.26
2023-04-02T18:59:47.968Z,60.16
2023-04-02T19:02:30.591Z,58.77
2023-04-02T19:05:05.788Z,59.42
2023-04-02T19:07:41.827Z,59.50
2023-04-02T19:10:22.716Z,59.86
2023-04-02T19:13:06.027Z,59.44
2023-04-02T19:15:45.625Z,59.10
2023-04-02T19:18:26.033Z,59.65
2023-04-02T19:21:02.214Z,59.63
2023-04-02T19:23:40.878Z,60.03
2023-04-02T19:26:17.220Z,60.70
2023-04-02T19:28:58.464Z,60.44
2023-04-02T19:31:41.290Z,60.05
2023-04-02T19:34:29.560Z,59.45
2023-04-02T19:37:04.455Z,60.09
2023-04-02T19:39:46.879Z,60.45
2023-04-02T19:42:24.584Z,60.27
2023-04-02T19:44:59.004Z,61.89
2023-04-02T19:47:32.223Z,60.98
2023-04-02T19:50:06.027Z,62.01
2023-04-02T19:52:39.092Z,62.30
2023-04-02T19:55:12.266Z,62.20
2023-04-02T19:57:45.277Z,62.64
2023-04-02T20:00:20.509Z,60.34
2023-04-02T20:02:56.148Z,62.22
2023-04-02T20:05:39.865Z,62.52
2023-04-02T20:08:12.779Z,62.39
2023-04-02T20:10:46.161Z,61.09
2023-04-02T20:13:19.898Z,62.04
2023-04-02T20:15:54.784Z,62.79
2023-04-02T20:18:28.474Z,63.73
2023-04-02T20:21:04.960Z,63.47
2023-04-02T20:23:38.315Z,63.84
2023-04-02T20:26:11.700Z,63.96
2023-04-02T20:28:44.933Z,64.37
2023-04-02T20:31:19.660Z,63.71
2023-04-02T20:33:55.782Z,62.99
2023-04-02T20:36:28.971Z,65.00
2023-04-02T20:39:01.928Z,65.05
2023-04-02T20:41:35.111Z,64.95
2023-04-02T20:44:08.363Z,65.63
2023-04-02T20:46:42.714Z,63.70
2023-04-02T20:49:15.682Z,64.31
2023-04-02T20:51:49.593Z,63.93
2023-04-02T20:54:23.017Z,66.47
2023-04-02T20:56:56.281Z,66.12
2023-04-02T20:59:29.602Z,66.45
2023-04-02T21:02:04.530Z,67.46
2023-04-02T21:04:37.938Z,66.93
2023-04-02T21:07:18.577Z,66.95
2023-04-02T21:09:52.406Z,67.72
2023-04-02T21:12:26.982Z,66.09
2023-04-02T21:15:02.825Z,65.09
2023-04-02T21:17:37.386Z,66.40
2023-04-02T21:20:12.141Z,66.21
2023-04-02T21:22:46.084Z,65.42
2023-04-02T21:25:20.288Z,66.85
2023-04-02T21:27:53.149Z,67.45
2023-04-02T21:30:26.451Z,67.66
2023-04-02T21:33:01.312Z,68.26
2023-04-02T21:35:35.269Z,67.08
2023-04-02T21:38:08.636Z,68.83
2023-04-02T21:40:44.603Z,68.79
2023-04-02T21:43:17.673Z,69.27
2023-04-02T21:45:50.611Z,68.14
2023-04-02T21:48:25.084Z,69.32
2023-04-02T21:51:05.312Z,68.84
2023-04-02T21:53:38.412Z,68.63
2023-04-02T21:56:13.615Z,69.22
2023-04-02T21:58:47.328Z,69.34
2023-04-02T22:01:27.218Z,69.68
2023-04-02T22:04:05.340Z,69.13
2023-04-02T22:06:39.532Z,69.68
2023-04-02T22:09:13.819Z,69.30
2023-04-02T22:11:51.494Z,68.25
2023-04-02T22:14:25.683Z,66.77
2023-04-02T22:17:07.580Z,67.32
2023-04-02T22:19:43.359Z,66.76
2023-04-02T22:22:16.562Z,65.90
2023-04-02T22:24:49.762Z,66.83
2023-04-02T22:27:22.997Z,67.58
2023-04-02T22:29:55.851Z,68.34
2023-04-02T22:32:28.858Z,69.19
2023-04-02T22:35:06.252Z,68.95
2023-04-02T22:37:41.364Z,69.43
2023-04-02T22:40:14.495Z,69.96
2023-04-02T22:42:48.635Z,70.01
2023-04-02T22:45:29.439Z,70.68
2023-04-02T22:48:02.925Z,71.26
2023-04-02T22:50:37.862Z,71.82
2023-04-02T22:53:15.231Z,72.38
2023-04-02T22:55:48.266Z,71.92
2023-04-02T22:58:23.994Z,71.57
2023-04-02T23:00:57.188Z,72.27
2023-04-02T23:03:30.512Z,73.18
2023-04-02T23:06:06.169Z,73.90
2023-04-02T23:08:42.202Z,73.44
2023-04-02T23:11:28.368Z,73.51
2023-04-02T23:14:04.457Z,73.05
2023-04-02T23:16:37.764Z,73.01
2023-04-02T23:19:22.041Z,72.94
2023-04-02T23:21:56.892Z,73.27
2023-04-02T23:24:29.928Z,72.42
2023-04-02T23:27:05.597Z,72.96
2023-04-02T23:29:38.767Z,72.85
2023-04-02T23:32:11.925Z,72.89
2023-04-02T23:34:47.401Z,72.02
2023-04-02T23:37:21.866Z,70.95
2023-04-02T23:39:54.893Z,71.29
2023-04-02T23:42:28.422Z,71.47
2023-04-02T23:45:01.473Z,70.68
2023-04-02T23:47:34.606Z,70.76
2023-04-02T23:50:08.528Z,71.17
2023-04-02T23:52:42.835Z,70.85
2023-04-02T23:55:15.863Z,70.18
2023-04-02T23:57:48.879Z,69.78
